Time;durP1;ratioP1;P1;durP2;ratioP2;P2;SDS_P1;SDS_P2;PMS_P1;PMS_P2;Temp;Humidity;BMP_temperature;BMP_pressure;BME280_temperature;BME280_humidity;BME280_pressure;Samples;Min_cycle;Max_cycle;Signal;HPM_P1;HPM_P2
2023/12/22 00:00:48;;;;;;;24.40;5.18;;;10.10;99.90;;;;;;5035403;28;20033;-62
2023/12/22 00:03:15;;;;;;;23.45;4.80;;;10.20;99.90;;;;;;5035404;28;20045;-62
2023/12/22 00:05:42;;;;;;;21.73;4.95;;;10.20;99.90;;;;;;5035498;28;20377;-62
2023/12/22 00:08:09;;;;;;;25.88;4.70;;;10.10;99.90;;;;;;5035288;28;20076;-62
2023/12/22 00:10:36;;;;;;;23.02;5.47;;;10.10;99.90;;;;;;5035179;28;20038;-62
2023/12/22 00:13:02;;;;;;;25.88;5.43;;;10.10;99.90;;;;;;5035086;28;20033;-63
2023/12/22 00:15:29;;;;;;;23.48;5.13;;;10.00;99.90;;;;;;5035359;28;20041;-64
2023/12/22 00:17:56;;;;;;;21.40;4.95;;;10.10;99.90;;;;;;5035325;28;20091;-64
2023/12/22 00:20:23;;;;;;;29.60;6.40;;;10.00;99.90;;;;;;5035171;28;20041;-65
2023/12/22 00:22:50;;;;;;;21.45;4.95;;;10.00;99.90;;;;;;5033781;28;20056;-64
2023/12/22 00:25:17;;;;;;;21.17;4.63;;;10.00;99.90;;;;;;5033928;28;20370;-65
2023/12/22 00:27:44;;;;;;;19.55;5.22;;;10.00;99.90;;;;;;5034931;28;20482;-65
2023/12/22 00:30:10;;;;;;;22.33;5.28;;;10.00;99.90;;;;;;5035018;28;20045;-64
2023/12/22 00:32:37;;;;;;;24.15;5.10;;;10.00;99.90;;;;;;5034767;28;20037;-66
2023/12/22 00:35:04;;;;;;;18.20;4.75;;;10.00;99.90;;;;;;5033659;28;20117;-64
2023/12/22 00:37:31;;;;;;;24.95;5.20;;;10.00;99.90;;;;;;5034993;28;20046;-64
2023/12/22 00:39:58;;;;;;;16.83;4.05;;;10.00;99.90;;;;;;5033439;28;20037;-64
2023/12/22 00:42:25;;;;;;;20.95;4.70;;;10.00;99.90;;;;;;5034911;28;20118;-64
2023/12/22 00:44:52;;;;;;;19.80;4.38;;;10.00;99.90;;;;;;5034800;28;20436;-64
2023/12/22 00:47:19;;;;;;;21.15;4.53;;;10.00;99.90;;;;;;5034634;28;20046;-64
2023/12/22 00:49:46;;;;;;;18.75;4.93;;;10.00;99.90;;;;;;5033287;28;20436;-64
2023/12/22 00:52:13;;;;;;;21.23;4.40;;;10.00;99.90;;;;;;5034302;28;20120;-65
2023/12/22 00:54:40;;;;;;;19.83;4.30;;;10.00;99.90;;;;;;5034241;28;20045;-65
2023/12/22 00:57:07;;;;;;;23.42;5.55;;;10.10;99.90;;;;;;5033213;28;20485;-64
2023/12/22 00:59:33;;;;;;;17.10;4.13;;;10.00;99.90;;;;;;5032926;28;20052;-63
2023/12/22 01:02:00;;;;;;;18.52;4.07;;;10.10;99.90;;;;;;5032662;28;20053;-64
2023/12/22 01:04:27;;;;;;;20.60;4.50;;;10.10;99.90;;;;;;5034204;28;20038;-64
2023/12/22 01:06:54;;;;;;;23.58;4.57;;;10.10;99.90;;;;;;5034180;28;20124;-64
2023/12/22 01:09:21;;;;;;;15.43;4.20;;;10.10;99.90;;;;;;5034309;28;20049;-64
2023/12/22 01:11:47;;;;;;;23.85;3.83;;;10.10;99.90;;;;;;5033931;28;20130;-64
2023/12/22 01:14:14;;;;;;;19.90;4.13;;;10.20;99.90;;;;;;5033845;28;20418;-64
2023/12/22 01:16:41;;;;;;;17.15;3.58;;;10.20;99.90;;;;;;5035821;28;20393;-64
2023/12/22 01:19:08;;;;;;;21.25;4.15;;;10.20;99.90;;;;;;5037023;28;20072;-64
2023/12/22 01:21:35;;;;;;;17.52;3.50;;;10.20;99.90;;;;;;5035472;28;20050;-65
2023/12/22 01:24:02;;;;;;;16.52;3.17;;;10.20;99.90;;;;;;5034027;28;20041;-64
2023/12/22 01:26:28;;;;;;;17.42;4.03;;;10.30;99.90;;;;;;5034157;28;20037;-65
2023/12/22 01:28:55;;;;;;;16.10;3.60;;;10.30;99.90;;;;;;5033960;28;20441;-65
2023/12/22 01:31:22;;;;;;;13.60;3.20;;;10.30;99.90;;;;;;5034099;28;20370;-65
2023/12/22 01:33:49;;;;;;;12.85;2.55;;;10.30;99.90;;;;;;5031071;28;20056;-65
2023/12/22 01:36:16;;;;;;;11.80;2.63;;;10.40;99.90;;;;;;5030588;28;20052;-64
2023/12/22 01:38:42;;;;;;;10.85;2.20;;;10.40;99.90;;;;;;5031761;28;20045;-64
2023/12/22 01:41:09;;;;;;;6.97;2.03;;;10.50;99.90;;;;;;5030755;28;20038;-64
2023/12/22 01:43:36;;;;;;;6.72;1.80;;;10.50;99.90;;;;;;5032095;28;20512;-64
2023/12/22 01:46:03;;;;;;;7.60;1.98;;;10.50;99.90;;;;;;5032643;28;20112;-65
2023/12/22 01:48:30;;;;;;;8.02;1.83;;;10.60;99.90;;;;;;5032282;28;20394;-64
2023/12/22 01:50:57;;;;;;;7.00;1.60;;;10.60;99.90;;;;;;5033644;28;20405;-65
2023/12/22 01:53:23;;;;;;;5.75;1.70;;;10.60;99.90;;;;;;5033642;28;20045;-65
2023/12/22 01:55:50;;;;;;;5.38;1.40;;;10.60;99.90;;;;;;5032232;28;20045;-64
2023/12/22 01:58:18;;;;;;;5.75;1.35;;;10.60;99.90;;;;;;5033689;28;20103;-65
2023/12/22 02:00:45;;;;;;;4.47;1.10;;;10.60;99.90;;;;;;5033330;28;20615;-65
2023/12/22 02:03:11;;;;;;;5.57;1.13;;;10.60;99.90;;;;;;5032350;28;20064;-65
2023/12/22 02:05:38;;;;;;;6.25;1.40;;;10.60;99.90;;;;;;5033348;28;20454;-65
2023/12/22 02:08:05;;;;;;;4.90;1.15;;;10.70;99.90;;;;;;5033473;28;20096;-65
2023/12/22 02:10:32;;;;;;;5.18;1.17;;;10.60;99.90;;;;;;5033309;28;20095;-64
2023/12/22 02:12:59;;;;;;;6.22;1.42;;;10.60;99.90;;;;;;5033553;28;20045;-65
2023/12/22 02:15:26;;;;;;;4.60;1.23;;;10.60;99.90;;;;;;5033299;28;20440;-64
2023/12/22 02:17:52;;;;;;;5.55;1.42;;;10.60;99.90;;;;;;5033741;28;20041;-64
2023/12/22 02:20:19;;;;;;;6.93;1.52;;;10.60;99.90;;;;;;5033381;28;20112;-64
2023/12/22 02:22:46;;;;;;;9.48;2.10;;;10.50;99.90;;;;;;5033060;28;20045;-63
2023/12/22 02:25:13;;;;;;;5.45;1.20;;;10.50;99.90;;;;;;5033167;28;20116;-64
2023/12/22 02:27:40;;;;;;;9.15;1.77;;;10.40;99.90;;;;;;5033403;28;20064;-63
2023/12/22 02:30:07;;;;;;;5.80;2.00;;;10.30;99.90;;;;;;5033447;28;20442;-62
2023/12/22 02:32:34;;;;;;;9.73;1.73;;;10.30;99.90;;;;;;5031672;28;20091;-63
2023/12/22 02:35:02;;;;;;;10.38;1.98;;;10.20;99.90;;;;;;5031876;28;20034;-64
2023/12/22 02:37:29;;;;;;;8.82;2.05;;;10.10;99.90;;;;;;5033342;28;20037;-64
2023/12/22 02:39:56;;;;;;;8.63;1.75;;;10.10;99.90;;;;;;5033036;28;20564;-63
2023/12/22 02:42:26;;;;;;;12.73;2.28;;;10.00;99.90;;;;;;5033199;28;20045;-63
2023/12/22 02:44:53;;;;;;;11.45;2.63;;;9.90;99.90;;;;;;5033124;28;20052;-64
2023/12/22 02:47:20;;;;;;;9.73;2.15;;;9.80;99.90;;;;;;5032760;28;20095;-64
2023/12/22 02:49:47;;;;;;;8.77;1.70;;;9.70;99.90;;;;;;5031929;28;20056;-64
2023/12/22 02:52:13;;;;;;;9.75;2.53;;;9.60;99.90;;;;;;5032884;28;20042;-64
2023/12/22 02:54:41;;;;;;;15.40;2.30;;;9.60;99.90;;;;;;5033086;28;20069;-63
2023/12/22 02:57:08;;;;;;;9.95;2.17;;;9.50;99.90;;;;;;5033158;28;20046;-63
2023/12/22 02:59:34;;;;;;;12.60;2.25;;;9.50;99.90;;;;;;5036228;28;20449;-63
2023/12/22 03:02:01;;;;;;;9.90;2.25;;;9.40;99.90;;;;;;5035547;28;20038;-64
2023/12/22 03:04:28;;;;;;;9.57;2.70;;;9.40;99.90;;;;;;5036822;28;20068;-64
2023/12/22 03:06:55;;;;;;;9.73;2.42;;;9.40;99.90;;;;;;5036714;28;20044;-63
2023/12/22 03:09:22;;;;;;;13.77;2.15;;;9.40;99.90;;;;;;5036567;28;20034;-62
2023/12/22 03:11:49;;;;;;;11.20;2.30;;;9.40;99.90;;;;;;5036249;28;20049;-64
2023/12/22 03:14:15;;;;;;;11.02;2.40;;;9.40;99.90;;;;;;5036306;28;20103;-64
2023/12/22 03:16:42;;;;;;;12.45;2.63;;;9.40;99.90;;;;;;5036428;28;20060;-63
2023/12/22 03:19:09;;;;;;;7.38;2.15;;;9.40;99.90;;;;;;5036661;28;20038;-64
2023/12/22 03:21:36;;;;;;;9.88;2.22;;;9.40;99.90;;;;;;5036228;28;20045;-64
2023/12/22 03:24:03;;;;;;;7.78;2.17;;;9.40;99.90;;;;;;5035985;28;20132;-64
2023/12/22 03:26:29;;;;;;;10.80;2.35;;;9.40;99.90;;;;;;5036163;28;20095;-64
2023/12/22 03:28:56;;;;;;;12.98;2.20;;;9.40;99.90;;;;;;5034992;28;20048;-63
2023/12/22 03:31:23;;;;;;;10.73;2.20;;;9.40;99.90;;;;;;5036149;28;20133;-62
2023/12/22 03:33:50;;;;;;;11.45;2.72;;;9.50;99.90;;;;;;5036034;28;20041;-64
2023/12/22 03:36:17;;;;;;;6.78;2.28;;;9.50;99.90;;;;;;5035104;28;20049;-63
2023/12/22 03:38:44;;;;;;;9.68;2.17;;;9.40;99.90;;;;;;5036175;28;20040;-63
2023/12/22 03:41:11;;;;;;;5.85;2.00;;;9.50;99.90;;;;;;5035987;28;20049;-61
2023/12/22 03:43:37;;;;;;;10.27;1.95;;;9.50;99.90;;;;;;5035672;28;20077;-62
2023/12/22 03:46:04;;;;;;;7.53;1.85;;;9.50;99.90;;;;;;5035931;28;20041;-62
2023/12/22 03:48:31;;;;;;;7.85;1.65;;;9.50;99.90;;;;;;5035982;28;20046;-62
2023/12/22 03:50:58;;;;;;;9.60;1.70;;;9.50;99.90;;;;;;5035785;28;20436;-62
2023/12/22 03:53:25;;;;;;;9.10;2.00;;;9.60;99.90;;;;;;5035450;28;20034;-62
2023/12/22 03:55:51;;;;;;;4.65;1.52;;;9.60;99.90;;;;;;5035707;28;20437;-62
2023/12/22 03:58:18;;;;;;;8.23;1.85;;;9.60;99.90;;;;;;5035626;28;20046;-62
2023/12/22 04:00:45;;;;;;;4.05;1.48;;;9.60;99.90;;;;;;5035614;28;20065;-62
2023/12/22 04:03:12;;;;;;;4.70;1.50;;;9.60;99.90;;;;;;5035501;28;20072;-61
2023/12/22 04:05:38;;;;;;;5.53;1.38;;;9.60;99.90;;;;;;5035522;28;20077;-62
2023/12/22 04:08:05;;;;;;;5.80;1.30;;;9.70;99.90;;;;;;5035630;28;20045;-61
2023/12/22 04:10:32;;;;;;;6.97;1.30;;;9.70;99.90;;;;;;5033958;28;20038;-61
2023/12/22 04:12:59;;;;;;;4.80;1.25;;;9.70;99.90;;;;;;5035205;28;20465;-61
2023/12/22 04:15:26;;;;;;;6.90;1.60;;;9.80;99.90;;;;;;5035540;28;20046;-62
2023/12/22 04:17:52;;;;;;;3.40;1.05;;;9.90;99.90;;;;;;5035039;28;20050;-62
2023/12/22 04:20:19;;;;;;;5.18;1.33;;;9.90;99.90;;;;;;5035321;28;20429;-61
2023/12/22 04:22:46;;;;;;;6.85;1.30;;;10.00;99.90;;;;;;5034951;28;20505;-62
2023/12/22 04:25:13;;;;;;;4.88;0.93;;;10.00;99.90;;;;;;5035266;28;20067;-62
2023/12/22 04:27:39;;;;;;;5.55;1.10;;;10.00;99.90;;;;;;5034767;28;20080;-63
2023/12/22 04:30:06;;;;;;;3.05;0.85;;;10.10;99.90;;;;;;5034972;28;20041;-63
2023/12/22 04:32:33;;;;;;;7.53;1.17;;;10.10;99.90;;;;;;5035172;28;20132;-63
2023/12/22 04:35:00;;;;;;;4.35;0.98;;;10.20;99.90;;;;;;5034966;28;20080;-63
2023/12/22 04:37:27;;;;;;;5.38;0.90;;;10.20;99.90;;;;;;5034925;28;20056;-63
2023/12/22 04:39:54;;;;;;;2.95;0.73;;;10.20;99.90;;;;;;5033463;28;20068;-63
2023/12/22 04:42:20;;;;;;;4.20;0.98;;;10.20;99.90;;;;;;5034616;28;20046;-64
2023/12/22 04:44:47;;;;;;;4.53;0.93;;;10.20;99.90;;;;;;5034840;28;20164;-64
2023/12/22 04:47:14;;;;;;;4.50;1.17;;;10.20;99.90;;;;;;5034870;28;20043;-64
2023/12/22 04:49:41;;;;;;;4.82;1.38;;;10.30;99.90;;;;;;5033622;28;20478;-64
2023/12/22 04:52:07;;;;;;;5.32;1.08;;;10.30;99.90;;;;;;5034615;28;20490;-62
2023/12/22 04:54:34;;;;;;;5.20;0.90;;;10.40;99.90;;;;;;5034818;28;20144;-64
2023/12/22 04:57:01;;;;;;;4.30;0.93;;;10.40;99.90;;;;;;5034442;28;20046;-63
2023/12/22 04:59:28;;;;;;;2.70;1.10;;;10.40;99.90;;;;;;5034424;28;20050;-64
2023/12/22 05:01:55;;;;;;;5.03;1.17;;;10.40;99.90;;;;;;5034085;28;20045;-64
2023/12/22 05:04:22;;;;;;;4.22;0.93;;;10.50;99.90;;;;;;5034326;28;20060;-64
2023/12/22 05:06:49;;;;;;;4.05;1.02;;;10.50;99.90;;;;;;5033851;28;20124;-63
2023/12/22 05:09:15;;;;;;;3.58;0.90;;;10.50;99.90;;;;;;5034090;28;20064;-63
2023/12/22 05:11:42;;;;;;;4.03;0.98;;;10.50;99.90;;;;;;5033736;28;20053;-64
2023/12/22 05:14:09;;;;;;;2.47;0.73;;;10.50;99.90;;;;;;5033947;28;20044;-63
2023/12/22 05:16:36;;;;;;;3.45;1.00;;;10.60;99.90;;;;;;5033911;28;20041;-64
2023/12/22 05:19:03;;;;;;;3.47;0.80;;;10.60;99.90;;;;;;5033735;28;20212;-65
2023/12/22 05:21:30;;;;;;;4.03;0.70;;;10.60;99.90;;;;;;5033201;28;20091;-63
2023/12/22 05:23:57;;;;;;;3.30;1.00;;;10.60;99.90;;;;;;5033740;28;20053;-64
2023/12/22 05:26:24;;;;;;;2.67;0.70;;;10.60;99.90;;;;;;5034016;28;20073;-63
2023/12/22 05:28:51;;;;;;;4.60;0.90;;;10.60;99.90;;;;;;5034188;28;20045;-63
2023/12/22 05:31:19;;;;;;;3.35;0.90;;;10.60;99.90;;;;;;5034260;28;20073;-64
2023/12/22 05:33:46;;;;;;;4.45;0.60;;;10.60;99.90;;;;;;5033894;28;20041;-63
2023/12/22 05:36:13;;;;;;;3.45;0.80;;;10.50;99.90;;;;;;5034124;28;20455;-63
2023/12/22 05:38:39;;;;;;;2.10;0.70;;;10.60;99.90;;;;;;5032415;28;20428;-63
2023/12/22 05:41:06;;;;;;;4.97;0.80;;;10.60;99.90;;;;;;5033728;28;20484;-64
2023/12/22 05:43:33;;;;;;;2.67;0.80;;;10.70;99.90;;;;;;5032533;28;20465;-63
2023/12/22 05:46:00;;;;;;;3.90;0.63;;;10.70;99.90;;;;;;5033453;28;20045;-64
2023/12/22 05:48:27;;;;;;;3.72;0.77;;;10.70;99.90;;;;;;5033477;28;20037;-64
2023/12/22 05:50:54;;;;;;;2.17;0.60;;;10.70;99.90;;;;;;5033457;28;20461;-64
2023/12/22 05:53:21;;;;;;;3.45;0.70;;;10.70;99.90;;;;;;5033323;28;20038;-64
2023/12/22 05:55:48;;;;;;;3.53;0.80;;;10.60;99.90;;;;;;5032235;28;20042;-63
2023/12/22 05:58:15;;;;;;;3.22;0.73;;;10.40;99.90;;;;;;5033970;28;20091;-64
2023/12/22 06:00:42;;;;;;;4.00;0.70;;;10.30;99.90;;;;;;5032579;28;20041;-64
2023/12/22 06:03:09;;;;;;;2.50;0.63;;;10.20;99.90;;;;;;5033584;28;20103;-64
2023/12/22 06:05:36;;;;;;;3.63;1.00;;;10.20;99.90;;;;;;5033808;28;20037;-63
2023/12/22 06:08:03;;;;;;;1.75;0.50;;;10.10;99.90;;;;;;5033527;28;20037;-63
2023/12/22 06:10:30;;;;;;;4.65;1.10;;;10.10;99.90;;;;;;5033479;28;20069;-63
2023/12/22 06:12:57;;;;;;;2.90;0.50;;;10.10;99.90;;;;;;5031625;28;20053;-64
2023/12/22 06:15:24;;;;;;;2.65;0.80;;;10.10;99.90;;;;;;5033625;28;20042;-63
2023/12/22 06:17:51;;;;;;;4.30;0.80;;;10.10;99.90;;;;;;5032342;28;20040;-63
2023/12/22 06:20:18;;;;;;;3.10;1.00;;;10.10;99.90;;;;;;5033468;28;20041;-64
2023/12/22 06:22:45;;;;;;;3.80;0.70;;;10.10;99.90;;;;;;5033339;28;20508;-63
2023/12/22 06:25:12;;;;;;;3.60;0.75;;;10.10;99.90;;;;;;5033133;28;20045;-64
2023/12/22 06:27:39;;;;;;;5.28;0.80;;;10.10;99.90;;;;;;5033187;28;20099;-64
2023/12/22 06:30:06;;;;;;;3.00;0.88;;;10.10;99.90;;;;;;5031800;28;20103;-64
2023/12/22 06:32:33;;;;;;;3.55;1.20;;;10.00;99.90;;;;;;5033161;28;20459;-64
2023/12/22 06:35:00;;;;;;;3.47;0.80;;;10.00;99.90;;;;;;5037022;28;20045;-64
2023/12/22 06:37:27;;;;;;;2.55;0.73;;;10.00;99.90;;;;;;5037021;28;20037;-64
2023/12/22 06:39:54;;;;;;;3.55;0.70;;;10.00;99.90;;;;;;5035991;28;20471;-64
2023/12/22 06:42:21;;;;;;;1.83;0.70;;;10.10;99.90;;;;;;5019435;28;20459;-64
2023/12/22 06:44:49;;;;;;;2.45;0.70;;;10.10;99.90;;;;;;5037234;28;20041;-64
2023/12/22 06:47:15;;;;;;;2.55;0.80;;;10.10;99.90;;;;;;5019317;28;20399;-64
2023/12/22 06:49:42;;;;;;;1.90;0.80;;;10.10;99.90;;;;;;5035676;28;20052;-64
2023/12/22 06:52:09;;;;;;;3.05;0.80;;;10.10;99.90;;;;;;5037052;28;20103;-64
2023/12/22 06:54:36;;;;;;;2.75;0.70;;;10.10;99.90;;;;;;5035262;28;20145;-64
2023/12/22 06:57:03;;;;;;;3.95;1.17;;;10.20;99.90;;;;;;5037133;28;20041;-63
2023/12/22 06:59:30;;;;;;;3.88;0.77;;;10.10;99.90;;;;;;5036632;28;20462;-60
2023/12/22 07:01:59;;;;;;;3.63;0.70;;;10.20;99.90;;;;;;5036975;28;20049;-60
2023/12/22 07:04:41;;;;;;;2.72;0.70;;;10.20;99.90;;;;;;5036619;28;20386;-60
2023/12/22 07:07:26;;;;;;;1.47;0.60;;;10.20;99.90;;;;;;5036784;28;20060;-60
2023/12/22 07:09:53;;;;;;;4.20;0.70;;;10.30;99.90;;;;;;5036699;28;20336;-60
2023/12/22 07:12:20;;;;;;;1.92;0.63;;;10.30;99.90;;;;;;5035413;28;20053;-60
2023/12/22 07:14:47;;;;;;;3.10;0.70;;;10.30;99.90;;;;;;5036430;28;20045;-60
2023/12/22 07:17:14;;;;;;;2.72;0.73;;;10.40;99.90;;;;;;5036343;28;20041;-60
2023/12/22 07:19:40;;;;;;;3.72;0.60;;;10.40;99.90;;;;;;5034871;28;20444;-60
2023/12/22 07:22:07;;;;;;;5.55;0.68;;;10.40;99.90;;;;;;5035452;28;20497;-60
2023/12/22 07:24:34;;;;;;;2.53;0.70;;;10.40;99.90;;;;;;5036032;28;20099;-59
2023/12/22 07:27:01;;;;;;;1.83;0.60;;;10.40;99.90;;;;;;5036665;28;20037;-62
2023/12/22 07:29:28;;;;;;;3.47;0.60;;;10.40;99.90;;;;;;5036134;28;20049;-61
2023/12/22 07:31:55;;;;;;;3.78;0.65;;;10.40;99.90;;;;;;5036191;28;20080;-60
2023/12/22 07:34:22;;;;;;;3.72;0.60;;;10.40;99.90;;;;;;5034777;28;20041;-61
2023/12/22 07:36:49;;;;;;;3.58;0.60;;;10.40;99.90;;;;;;5036141;28;20187;-61
2023/12/22 07:39:29;;;;;;;2.85;0.60;;;10.40;99.90;;;;;;5035277;28;20103;-60
2023/12/22 07:41:55;;;;;;;2.47;0.75;;;10.40;99.90;;;;;;5036057;28;20037;-61
2023/12/22 07:44:24;;;;;;;2.08;0.50;;;10.50;99.90;;;;;;5035298;28;20053;-61
2023/12/22 07:46:50;;;;;;;2.28;0.50;;;10.50;99.90;;;;;;5035759;28;20042;-61
2023/12/22 07:49:17;;;;;;;2.08;0.50;;;10.50;99.90;;;;;;5036072;28;20049;-61
2023/12/22 07:51:44;;;;;;;3.35;0.80;;;10.50;99.90;;;;;;5036001;28;20095;-61
2023/12/22 07:54:11;;;;;;;1.80;0.47;;;10.50;99.90;;;;;;5035483;28;20072;-61
2023/12/22 07:56:37;;;;;;;3.20;0.60;;;10.50;99.90;;;;;;5035996;28;20037;-60
2023/12/22 07:59:04;;;;;;;2.70;0.60;;;10.50;99.90;;;;;;5035476;28;20046;-64
2023/12/22 08:01:52;;;;;;;4.05;0.70;;;10.50;99.90;;;;;;5033922;28;20489;-60
2023/12/22 08:04:19;;;;;;;4.53;0.60;;;10.50;99.90;;;;;;5035347;28;20075;-60
2023/12/22 08:06:46;;;;;;;2.28;0.60;;;10.50;99.90;;;;;;5035409;28;20049;-64
2023/12/22 08:09:13;;;;;;;2.20;0.70;;;10.50;99.90;;;;;;5035263;28;20046;-62
2023/12/22 08:11:40;;;;;;;3.17;0.60;;;10.50;99.90;;;;;;5034865;28;20091;-64
2023/12/22 08:14:07;;;;;;;2.45;0.50;;;10.60;99.90;;;;;;5033956;28;20045;-64
2023/12/22 08:16:33;;;;;;;2.40;0.70;;;10.60;99.90;;;;;;5035319;28;20112;-63
2023/12/22 08:19:00;;;;;;;2.42;0.60;;;10.60;99.90;;;;;;5034568;28;20393;-64
2023/12/22 08:21:27;;;;;;;2.75;0.60;;;10.60;99.90;;;;;;5033506;28;20053;-64
2023/12/22 08:24:09;;;;;;;2.03;0.50;;;10.60;99.90;;;;;;5033181;28;20061;-63
2023/12/22 08:26:45;;;;;;;1.15;0.50;;;10.60;99.90;;;;;;5032556;28;20048;-64
2023/12/22 08:29:11;;;;;;;2.22;0.50;;;10.70;99.90;;;;;;5035019;28;20462;-64
2023/12/22 08:31:38;;;;;;;6.03;0.68;;;10.70;99.90;;;;;;5035071;28;20048;-63
2023/12/22 08:34:05;;;;;;;3.45;0.70;;;10.70;99.90;;;;;;5034643;28;20037;-64
2023/12/22 08:36:32;;;;;;;2.65;0.52;;;10.70;99.90;;;;;;5035068;28;20125;-64
2023/12/22 08:38:59;;;;;;;3.38;0.68;;;10.70;99.90;;;;;;5035024;28;20037;-64
2023/12/22 08:41:26;;;;;;;2.95;0.65;;;10.80;99.90;;;;;;5033592;28;20493;-63
2023/12/22 08:43:53;;;;;;;2.15;0.60;;;10.80;99.90;;;;;;5034907;28;20061;-64
2023/12/22 08:46:20;;;;;;;3.25;1.00;;;10.80;99.90;;;;;;5034654;28;20049;-63
2023/12/22 08:48:47;;;;;;;4.05;0.70;;;10.80;99.90;;;;;;5034751;28;20441;-64
2023/12/22 08:51:14;;;;;;;4.70;0.60;;;10.90;99.90;;;;;;5034326;28;20049;-61
2023/12/22 08:53:41;;;;;;;1.50;0.50;;;10.90;99.90;;;;;;5034451;28;20044;-60
2023/12/22 08:56:08;;;;;;;10.98;2.15;;;10.90;99.90;;;;;;5032391;28;20045;-61
2023/12/22 08:58:35;;;;;;;4.85;0.70;;;11.00;99.90;;;;;;5034183;28;20091;-60
2023/12/22 09:01:02;;;;;;;4.40;0.75;;;11.00;99.90;;;;;;5034503;28;20038;-60
2023/12/22 09:03:30;;;;;;;2.47;0.70;;;11.00;99.90;;;;;;5034160;28;20037;-61
2023/12/22 09:05:57;;;;;;;2.83;0.57;;;11.00;99.90;;;;;;5034283;28;20092;-59
2023/12/22 09:08:23;;;;;;;2.75;0.80;;;11.10;99.90;;;;;;5033210;28;20386;-59
2023/12/22 09:10:50;;;;;;;2.95;0.70;;;11.10;99.90;;;;;;5033998;28;20501;-60
2023/12/22 09:13:17;;;;;;;3.10;0.75;;;11.10;99.90;;;;;;5034268;28;20493;-61
2023/12/22 09:15:48;;;;;;;2.40;0.68;;;11.10;99.90;;;;;;5034169;28;20045;-60
2023/12/22 09:18:15;;;;;;;4.47;0.60;;;11.10;99.90;;;;;;5033070;28;20136;-60
2023/12/22 09:20:42;;;;;;;2.22;0.65;;;11.10;99.90;;;;;;5034366;28;20430;-60
2023/12/22 09:23:10;;;;;;;2.47;0.50;;;11.20;99.90;;;;;;5033949;28;20055;-60
2023/12/22 09:25:37;;;;;;;3.53;0.90;;;11.10;99.90;;;;;;5033730;28;20044;-60
2023/12/22 09:28:03;;;;;;;2.30;0.85;;;11.20;99.90;;;;;;5033322;28;20045;-60
2023/12/22 09:30:31;;;;;;;3.50;1.00;;;11.20;99.90;;;;;;5032516;28;20060;-59
2023/12/22 09:32:58;;;;;;;4.90;0.75;;;11.20;99.90;;;;;;5016973;28;20046;-59
2023/12/22 09:35:26;;;;;;;3.80;0.70;;;11.30;99.90;;;;;;5014103;28;20100;-59
2023/12/22 09:37:53;;;;;;;2.97;0.75;;;11.30;99.90;;;;;;5014428;28;20125;-59
2023/12/22 09:40:21;;;;;;;3.00;0.77;;;11.30;99.90;;;;;;5013800;28;20046;-59
2023/12/22 09:42:48;;;;;;;4.70;1.25;;;11.30;99.90;;;;;;5024844;28;20490;-60
2023/12/22 09:45:15;;;;;;;3.33;0.77;;;11.30;99.90;;;;;;5027170;28;20477;-58
2023/12/22 09:47:42;;;;;;;3.78;0.80;;;11.30;99.90;;;;;;5023420;28;20505;-59
2023/12/22 09:50:09;;;;;;;3.05;1.00;;;11.30;99.90;;;;;;5020974;28;20065;-59
2023/12/22 09:52:37;;;;;;;2.13;0.77;;;11.30;99.90;;;;;;5028907;28;20547;-62
2023/12/22 09:55:04;;;;;;;3.70;0.80;;;11.30;99.90;;;;;;5032175;28;20120;-62
2023/12/22 09:57:30;;;;;;;4.03;0.98;;;11.30;99.90;;;;;;5029882;28;20049;-62
2023/12/22 09:59:57;;;;;;;5.38;1.00;;;11.30;99.90;;;;;;5021373;28;20052;-61
2023/12/22 10:02:24;;;;;;;2.97;0.70;;;11.30;99.90;;;;;;5031525;28;20048;-61
2023/12/22 10:04:51;;;;;;;6.15;1.65;;;11.30;99.90;;;;;;5023910;28;20041;-62
2023/12/22 10:07:17;;;;;;;6.88;1.30;;;11.30;99.90;;;;;;5014215;28;20046;-62
2023/12/22 10:09:45;;;;;;;3.80;0.90;;;11.30;99.90;;;;;;5013786;28;20498;-61
2023/12/22 10:12:12;;;;;;;3.42;0.73;;;11.30;99.90;;;;;;5013478;28;20105;-62
2023/12/22 10:14:39;;;;;;;3.53;0.85;;;11.30;99.90;;;;;;5013689;28;20041;-63
2023/12/22 10:17:06;;;;;;;2.38;0.70;;;11.40;99.90;;;;;;5013800;28;20033;-63
2023/12/22 10:19:33;;;;;;;2.47;0.80;;;11.40;99.90;;;;;;5013721;28;20490;-63
2023/12/22 10:22:00;;;;;;;3.78;1.00;;;11.40;99.90;;;;;;5013800;28;20046;-63
2023/12/22 10:24:27;;;;;;;3.53;1.10;;;11.50;99.90;;;;;;5012466;28;20096;-63
2023/12/22 10:26:54;;;;;;;2.85;0.90;;;11.50;99.90;;;;;;5026849;28;20442;-63
2023/12/22 10:29:23;;;;;;;3.15;0.90;;;11.40;99.90;;;;;;5025681;28;20555;-63
2023/12/22 10:31:49;;;;;;;5.03;0.90;;;11.50;99.90;;;;;;5019092;28;20512;-63
2023/12/22 10:34:16;;;;;;;5.78;1.33;;;11.50;99.90;;;;;;5032260;28;20079;-63
2023/12/22 10:36:43;;;;;;;5.05;1.00;;;11.50;99.90;;;;;;5031980;28;20040;-63
2023/12/22 10:39:10;;;;;;;3.08;1.00;;;11.50;99.90;;;;;;5026159;28;20042;-63
2023/12/22 10:41:37;;;;;;;4.03;1.02;;;11.50;99.90;;;;;;5026413;28;20042;-67
2023/12/22 10:44:03;;;;;;;5.25;1.15;;;11.50;99.90;;;;;;5015666;28;20104;-63
2023/12/22 10:46:30;;;;;;;4.38;0.90;;;11.50;99.90;;;;;;5032358;28;20042;-64
2023/12/22 10:48:57;;;;;;;5.90;1.17;;;11.50;99.90;;;;;;5029962;28;20047;-64
2023/12/22 10:51:24;;;;;;;8.68;1.17;;;11.50;99.90;;;;;;5025254;28;20121;-63
2023/12/22 10:53:51;;;;;;;7.07;1.45;;;11.50;99.90;;;;;;5013393;28;20498;-62
2023/12/22 10:56:18;;;;;;;3.35;1.05;;;11.60;99.90;;;;;;5029870;28;20470;-64
2023/12/22 10:58:45;;;;;;;4.75;1.10;;;11.60;99.90;;;;;;5014013;28;20088;-64
2023/12/22 11:01:12;;;;;;;5.05;1.23;;;11.60;99.90;;;;;;5026590;28;20049;-63
2023/12/22 11:03:39;;;;;;;5.10;1.48;;;11.60;99.90;;;;;;5020584;28;20046;-63
2023/12/22 11:06:06;;;;;;;9.02;1.50;;;11.50;99.90;;;;;;5029906;28;20045;-63
2023/12/22 11:08:33;;;;;;;6.32;1.67;;;11.50;99.90;;;;;;5031989;28;20096;-62
2023/12/22 11:11:00;;;;;;;5.03;1.13;;;11.50;99.90;;;;;;5027376;28;20085;-62
2023/12/22 11:13:26;;;;;;;6.75;1.50;;;11.50;99.90;;;;;;5013137;28;20486;-63
2023/12/22 11:15:56;;;;;;;4.32;1.23;;;11.50;99.90;;;;;;5018183;28;20489;-63
2023/12/22 11:18:23;;;;;;;5.10;1.40;;;11.50;99.90;;;;;;5020770;28;20045;-63
2023/12/22 11:20:50;;;;;;;8.20;2.33;;;11.50;99.90;;;;;;5034077;28;20460;-63
2023/12/22 11:23:17;;;;;;;6.07;1.83;;;11.60;99.90;;;;;;5028858;28;20049;-63
2023/12/22 11:25:44;;;;;;;9.15;1.40;;;11.60;99.90;;;;;;5022059;28;20066;-63
2023/12/22 11:28:11;;;;;;;7.13;1.80;;;11.60;99.90;;;;;;5015099;28;20093;-63
2023/12/22 11:30:38;;;;;;;8.07;1.65;;;11.60;99.90;;;;;;5027302;28;20520;-63
2023/12/22 11:33:05;;;;;;;6.63;1.77;;;11.70;99.90;;;;;;5028579;28;20124;-63
2023/12/22 11:35:31;;;;;;;8.10;1.70;;;11.70;99.90;;;;;;5024828;28;20125;-63
2023/12/22 11:38:01;;;;;;;7.03;1.50;;;11.70;99.90;;;;;;5029528;28;20390;-63
2023/12/22 11:40:28;;;;;;;6.03;1.50;;;11.70;99.90;;;;;;5035170;28;20045;-62
2023/12/22 11:42:54;;;;;;;5.53;1.40;;;11.80;99.90;;;;;;5035249;28;20116;-59
2023/12/22 11:45:24;;;;;;;5.35;1.30;;;11.80;99.90;;;;;;5032114;28;20045;-59
2023/12/22 11:47:51;;;;;;;7.80;2.20;;;11.80;99.90;;;;;;5035186;28;20073;-59
2023/12/22 11:50:20;;;;;;;3.40;0.95;;;11.90;99.90;;;;;;5034872;28;20088;-59
2023/12/22 11:52:46;;;;;;;4.35;1.15;;;11.90;99.90;;;;;;5024422;28;20475;-60
2023/12/22 11:55:13;;;;;;;6.93;1.30;;;11.90;99.90;;;;;;5015801;28;20073;-60
2023/12/22 11:57:40;;;;;;;4.07;1.30;;;11.90;99.90;;;;;;5015855;28;20038;-60
2023/12/22 12:00:07;;;;;;;5.97;1.30;;;12.00;99.90;;;;;;5015776;28;20097;-60
2023/12/22 12:02:40;;;;;;;4.30;1.30;;;12.00;99.90;;;;;;5015727;28;20069;-60
2023/12/22 12:05:07;;;;;;;3.28;1.08;;;12.00;99.90;;;;;;5029999;28;20128;-60
2023/12/22 12:07:34;;;;;;;8.23;1.40;;;12.00;99.90;;;;;;5034560;28;20080;-60
2023/12/22 12:10:01;;;;;;;5.50;1.17;;;12.00;99.90;;;;;;5034826;28;20405;-60
2023/12/22 12:12:28;;;;;;;4.82;1.23;;;12.00;99.90;;;;;;5034300;28;20060;-60
2023/12/22 12:14:54;;;;;;;5.03;1.20;;;12.10;99.90;;;;;;5034199;28;20505;-60
2023/12/22 12:17:22;;;;;;;4.45;1.33;;;12.10;99.90;;;;;;5034409;28;20474;-60
2023/12/22 12:19:49;;;;;;;4.47;1.13;;;12.10;99.90;;;;;;5034017;28;20371;-61
2023/12/22 12:22:16;;;;;;;4.18;1.20;;;12.10;99.90;;;;;;5034150;28;20038;-58
2023/12/22 12:24:43;;;;;;;2.90;1.00;;;12.10;99.90;;;;;;5028344;28;20540;-58
2023/12/22 12:27:09;;;;;;;5.07;1.42;;;12.10;99.90;;;;;;5034003;28;20100;-58
2023/12/22 12:29:37;;;;;;;4.53;1.20;;;12.10;99.90;;;;;;5033853;28;20406;-58
2023/12/22 12:32:04;;;;;;;3.95;1.20;;;12.10;99.90;;;;;;5027389;28;20084;-59
2023/12/22 12:34:31;;;;;;;6.10;0.98;;;12.10;99.90;;;;;;5033934;28;20045;-59
2023/12/22 12:36:58;;;;;;;4.03;1.10;;;12.10;99.90;;;;;;5031627;28;20523;-59
2023/12/22 12:39:28;;;;;;;4.43;1.30;;;12.10;99.90;;;;;;5033724;28;20143;-58
2023/12/22 12:41:56;;;;;;;6.63;1.35;;;12.10;99.90;;;;;;5033816;28;20544;-58
2023/12/22 12:44:23;;;;;;;5.72;1.52;;;12.10;99.90;;;;;;5033805;28;20041;-59